createdAt,value
2018-08-13T00:08:47.367Z,34.85
2018-08-13T00:18:51.505Z,35.03
2018-08-13T00:28:54.989Z,35.00
2018-08-13T00:38:58.048Z,34.03
2018-08-13T00:49:01.458Z,34.27
2018-08-13T00:59:05.235Z,34.51
2018-08-13T01:09:10.342Z,35.28
2018-08-13T01:19:13.535Z,34.53
2018-08-13T01:29:16.703Z,35.07
2018-08-13T01:39:19.962Z,34.14
2018-08-13T01:49:23.854Z,35.23
2018-08-13T01:59:26.929Z,35.29
2018-08-13T02:09:37.416Z,35.38
2018-08-13T02:19:40.784Z,34.45
2018-08-13T02:29:43.884Z,33.97
2018-08-13T02:39:47.646Z,34.90
2018-08-13T02:49:51.063Z,35.37
2018-08-13T02:59:54.739Z,34.98
2018-08-13T03:09:57.839Z,35.05
2018-08-13T03:20:01.902Z,35.39
2018-08-13T03:30:08.321Z,35.20
2018-08-13T03:40:13.577Z,34.91
2018-08-13T03:50:16.764Z,34.96
2018-08-13T04:00:20.238Z,35.10
2018-08-13T04:10:23.347Z,35.38
2018-08-13T04:20:27.303Z,34.51
2018-08-13T04:30:30.607Z,34.71
2018-08-13T04:40:33.704Z,34.76
2018-08-13T04:50:36.796Z,35.23
2018-08-13T05:00:40.006Z,35.24
2018-08-13T05:10:43.204Z,35.14
2018-08-13T05:20:46.311Z,34.52
2018-08-13T05:30:50.330Z,34.60
2018-08-13T05:40:53.410Z,34.52
2018-08-13T05:50:56.517Z,35.28
2018-08-13T06:00:59.738Z,35.49
2018-08-13T06:11:03.060Z,35.13
2018-08-13T06:21:06.396Z,33.03
2018-08-13T06:31:10.080Z,32.59
2018-08-13T06:41:13.325Z,32.04
2018-08-13T06:51:17.091Z,31.14
2018-08-13T07:01:20.445Z,30.76
2018-08-13T07:11:23.531Z,31.53
2018-08-13T07:21:26.614Z,30.32
2018-08-13T07:31:30.466Z,33.13
2018-08-13T07:41:33.484Z,34.36
2018-08-13T07:51:36.789Z,30.65
2018-08-13T08:01:39.902Z,31.30
2018-08-13T08:11:42.990Z,32.03
2018-08-13T08:21:46.069Z,32.95
2018-08-13T08:31:49.248Z,32.91
2018-08-13T08:41:52.358Z,33.08
2018-08-13T08:51:55.485Z,31.53
2018-08-13T09:01:58.640Z,33.47
2018-08-13T09:12:01.761Z,33.24
2018-08-13T09:22:16.404Z,32.89
2018-08-13T09:32:31.733Z,33.83
2018-08-13T09:42:34.741Z,32.68
2018-08-13T09:52:37.896Z,32.24
2018-08-13T10:02:40.986Z,31.04
2018-08-13T10:12:44.763Z,31.18
2018-08-13T10:22:48.011Z,33.37
2018-08-13T10:32:51.187Z,30.94
2018-08-13T10:42:54.561Z,32.67
2018-08-13T10:52:57.752Z,34.21
2018-08-13T11:03:01.132Z,32.10
2018-08-13T11:13:04.239Z,31.88
2018-08-13T11:23:07.337Z,28.83
2018-08-13T11:33:10.506Z,30.90
2018-08-13T11:43:13.846Z,31.50
2018-08-13T11:53:17.045Z,29.87
2018-08-13T12:03:20.108Z,33.91
2018-08-13T12:13:23.732Z,32.24
2018-08-13T12:23:26.993Z,34.07
2018-08-13T12:33:30.198Z,31.63
2018-08-13T12:43:33.354Z,31.62
2018-08-13T12:53:36.577Z,30.37
2018-08-13T13:03:40.202Z,31.35
2018-08-13T13:13:43.377Z,31.62
2018-08-13T13:23:46.461Z,30.75
2018-08-13T13:33:49.694Z,30.99
2018-08-13T13:43:52.897Z,30.09
2018-08-13T13:53:55.964Z,30.65
2018-08-13T14:03:59.149Z,31.21
2018-08-13T14:14:02.975Z,30.41
2018-08-13T14:24:06.361Z,31.86
2018-08-13T14:34:09.498Z,30.33
2018-08-13T14:44:12.799Z,30.13
2018-08-13T14:54:16.091Z,30.89
2018-08-13T15:04:19.176Z,32.02
2018-08-13T15:14:22.750Z,30.77
2018-08-13T15:24:25.828Z,29.91
2018-08-13T15:34:29.104Z,31.64
2018-08-13T15:44:32.215Z,32.38
2018-08-13T15:54:35.535Z,32.70
2018-08-13T16:04:38.713Z,32.97
2018-08-13T16:14:41.957Z,34.09
2018-08-13T16:24:45.061Z,33.59
2018-08-13T16:34:48.305Z,34.07
2018-08-13T16:44:51.457Z,35.63
2018-08-13T16:54:54.842Z,36.93
2018-08-13T17:04:58.063Z,35.39
2018-08-13T17:15:01.247Z,36.10
2018-08-13T17:25:05.274Z,36.74
2018-08-13T17:35:08.659Z,38.85
2018-08-13T17:45:11.899Z,37.19
2018-08-13T17:55:15.375Z,37.51
2018-08-13T18:05:20.822Z,37.88
2018-08-13T18:15:24.329Z,37.46
2018-08-13T18:25:27.929Z,38.00
2018-08-13T18:35:31.118Z,37.91
2018-08-13T18:45:34.294Z,38.54
2018-08-13T18:55:37.414Z,38.80
2018-08-13T19:05:40.553Z,38.40
2018-08-13T19:15:43.707Z,40.28
2018-08-13T19:25:47.523Z,39.56
2018-08-13T19:35:53.662Z,37.93
2018-08-13T19:45:59.573Z,39.23
2018-08-13T19:56:05.448Z,37.84
2018-08-13T20:06:08.482Z,37.04
2018-08-13T20:16:11.626Z,36.31
2018-08-13T20:26:15.358Z,36.19
2018-08-13T20:36:19.494Z,37.04
2018-08-13T20:46:22.768Z,37.37
2018-08-13T20:56:25.822Z,36.68
2018-08-13T21:06:29.335Z,37.83
2018-08-13T21:16:33.146Z,37.48
2018-08-13T21:26:37.054Z,37.92
2018-08-13T21:36:40.205Z,38.18
2018-08-13T21:46:43.906Z,37.80
2018-08-13T21:56:46.941Z,37.72
2018-08-13T22:06:50.053Z,38.23
2018-08-13T22:16:53.285Z,38.33
2018-08-13T22:26:56.392Z,38.52
2018-08-13T22:37:00.358Z,37.86
2018-08-13T22:47:03.537Z,38.30
2018-08-13T22:57:06.564Z,37.51
2018-08-13T23:07:10.209Z,37.53
2018-08-13T23:17:13.446Z,37.80
2018-08-13T23:27:16.978Z,38.39
2018-08-13T23:37:20.138Z,37.59
2018-08-13T23:47:23.695Z,38.56
2018-08-13T23:57:26.835Z,38.43
